Terminal Aerodrome Forecast
Issued by NWS

Current Version | Previous Version | Text Only | Print | Product List | Glossary On
Versions: 1 2 3 4 5 6 7 8 9 10 11 12 13 14 15 16 17 18 19 20 21 22 23 24 25 26 27 28 29 30 31 32 33 34 35 36 37 38 39 40 41 42
000 FTUS42 KRAH 250536 TAFINT TAF KINT 250536Z 2506/2606 04004KT P6SM OVC015 TEMPO 2506/2510 SCT015 SCT025 BKN050 FM251000 04005KT P6SM SCT025 BKN050 TEMPO 2510/2514 BKN025 FM251400 05005KT P6SM BKN030 BKN050 FM251600 06005KT P6SM BKN035 FM260200 VRB02KT P6SM SCT020 SCT040=

USA.gov is the U.S. government's official web portal to all federal, state and local government web resources and services.